Aporé Airstrip

BR-0035 · Mato Grosso do Sul, Brésil

METAR anciennes BR-0035 · Aporé Airstrip

Tu vois ci-dessous les METAR des derniers jours. Sélectionne une année pour parcourir les METAR plus anciens, à partir de l'année 2007.

22 juin 2024

Temps Code Temps Temp. Vue Base cloud Vent METAR/SPECI
02:00
V
20 °C 10 km+ - 030° 030° 5 kt METAR SBCG 220600Z 03005KT CAVOK 20/12 Q1013
01:00
V
23 °C 10 km+ - 020° 020° 8 kt METAR SBCG 220500Z 02008KT CAVOK 23/12 Q1014
00:00
V
21 °C 10 km+ - 020° 020° 6 kt METAR SBCG 220400Z 02006KT CAVOK 21/12 Q1014

21 juin 2024

Temps Code Temps Temp. Vue Base cloud Vent METAR/SPECI
23:00
V
23 °C 10 km+ - 030° 030° 6 kt METAR SBCG 220300Z 03006KT CAVOK 23/11 Q1014
22:00
V
19 °C 10 km+ - 050° 050° 6 kt METAR SBCG 220200Z 05006KT CAVOK 19/11 Q1014
21:00
V
20 °C 10 km+ - 040° 040° 7 kt METAR SBCG 220100Z 04007KT CAVOK 20/11 Q1014
20:00
V
22 °C 10 km+ - 050° 050° 4 kt METAR SBCG 220000Z 05004KT CAVOK 22/10 Q1014
19:00
V
25 °C 10 km+ - 020° 020° 7 kt METAR SBCG 212300Z 02007KT CAVOK 25/09 Q1013
18:00
V
25 °C 10 km+ - 010° 010° 8 kt METAR SBCG 212200Z 01008KT CAVOK 25/10 Q1013
17:00
V
28 °C 10 km+ - 360° 360° 8 kt METAR SBCG 212100Z 36008KT CAVOK 28/10 Q1012
16:00
V
30 °C 10 km+ - 350° 350° 9 kt METAR SBCG 212000Z 35009KT CAVOK 30/10 Q1012
15:00
V
31 °C 10 km+ - 010° 010° 14 kt METAR SBCG 211900Z 01014KT CAVOK 31/09 Q1011
14:00
V
31 °C 10 km+ - 350° 350° 13 kt METAR SBCG 211800Z 35013KT CAVOK 31/10 Q1012
13:00
V
31 °C 10 km+ - 010° 010° 14 - 24 kt METAR SBCG 211700Z 01014G24KT 340V050 CAVOK 31/10 Q1013
12:00
V
31 °C 10 km+ - 350° 350° 15 kt METAR SBCG 211600Z 35015KT CAVOK 31/09 Q1015
11:00
V
31 °C 10 km+ - 010° 010° 12 kt METAR SBCG 211500Z 01012KT CAVOK 31/10 Q1016
10:00
V
30 °C 10 km+ - 020° 020° 15 kt METAR SBCG 211400Z 02015KT CAVOK 30/10 Q1016
09:00
V
28 °C 10 km+ - 030° 030° 15 kt METAR SBCG 211300Z 03015KT CAVOK 28/09 Q1016
08:00
V
25 °C 10 km+ - 060° 060° 10 kt METAR SBCG 211200Z 06010KT CAVOK 25/09 Q1016
07:00
V
22 °C 10 km+ - 050° 050° 14 kt METAR SBCG 211100Z 05014KT CAVOK 22/08 Q1014
06:00
V
21 °C 10 km+ - 060° 060° 12 kt METAR SBCG 211000Z 06012KT CAVOK 21/07 Q1014
05:00
V
22 °C 10 km+ - 060° 060° 13 kt METAR SBCG 210900Z 06013KT CAVOK 22/07 Q1014
04:00
V
22 °C 10 km+ - 060° 060° 12 kt METAR SBCG 210800Z 06012KT CAVOK 22/07 Q1014
03:00
V
22 °C 10 km+ - 060° 060° 11 kt METAR SBCG 210700Z 06011KT CAVOK 22/08 Q1014
02:00
V
22 °C 10 km+ - 060° 060° 13 kt METAR SBCG 210600Z 06013KT CAVOK 22/08 Q1014
01:00
V
23 °C 10 km+ - 060° 060° 11 kt METAR SBCG 210500Z 06011KT CAVOK 23/08 Q1015
00:00
V
21 °C 10 km+ - 070° 070° 10 kt METAR SBCG 210400Z 07010KT CAVOK 21/09 Q1016

20 juin 2024

Temps Code Temps Temp. Vue Base cloud Vent METAR/SPECI
23:00
V
19 °C 10 km+ - 060° 060° 7 kt METAR SBCG 210300Z 06007KT CAVOK 19/09 Q1016
22:00
V
21 °C 10 km+ - 070° 070° 8 kt METAR SBCG 210200Z 07008KT CAVOK 21/08 Q1017
21:00
V
21 °C 10 km+ - 070° 070° 6 kt METAR SBCG 210100Z 07006KT CAVOK 21/09 Q1016
20:00
V
22 °C 10 km+ - 080° 080° 5 kt METAR SBCG 210000Z 08005KT CAVOK 22/09 Q1016
19:00
V
23 °C 10 km+ - 040° 040° 3 kt METAR SBCG 202300Z 04003KT CAVOK 23/09 Q1015
18:00
V
25 °C 10 km+ - 030° 030° 5 kt METAR SBCG 202200Z 03005KT CAVOK 25/08 Q1015
17:00
V
29 °C 10 km+ - 010° 010° 6 kt METAR SBCG 202100Z 01006KT CAVOK 29/07 Q1015
16:00
V
31 °C 10 km+ - 010° 010° 8 kt METAR SBCG 202000Z 01008KT 340V040 CAVOK 31/07 Q1014
15:00
V
32 °C 10 km+ - 340° 340° 7 kt METAR SBCG 201900Z 34007KT 320V020 CAVOK 32/08 Q1015
14:00
V
32 °C 10 km+ - 350° 350° 5 kt METAR SBCG 201800Z 35005KT 280V060 CAVOK 32/07 Q1015
13:00
V
32 °C 10 km+ - 030° 030° 8 kt METAR SBCG 201700Z 03008KT 350V060 CAVOK 32/07 Q1016
12:00
V
31 °C 10 km+ - 030° 030° 9 kt METAR SBCG 201600Z 03009KT 360V060 CAVOK 31/07 Q1017
11:00
V
31 °C 10 km+ - 360° 360° 13 kt METAR SBCG 201500Z 36013KT 330V030 CAVOK 31/06 Q1018
10:00
V
30 °C 10 km+ - 360° 360° 11 kt METAR SBCG 201400Z 36011KT 340V040 CAVOK 30/10 Q1018
09:00
V
29 °C 10 km+ - 020° 020° 11 kt METAR SBCG 201300Z 02011KT CAVOK 29/11 Q1018
08:00
V
27 °C 10 km+ - 040° 040° 8 kt METAR SBCG 201200Z 04008KT CAVOK 27/11 Q1018
07:00
V
22 °C 10 km+ - 050° 050° 8 kt METAR SBCG 201100Z 05008KT CAVOK 22/11 Q1017
06:00
V
20 °C 10 km+ - 050° 050° 10 kt METAR SBCG 201000Z 05010KT CAVOK 20/10 Q1016
05:00
V
20 °C 10 km+ - 060° 060° 9 kt METAR SBCG 200900Z 06009KT CAVOK 20/11 Q1016
04:00
V
19 °C 10 km+ - 060° 060° 7 kt METAR SBCG 200800Z 06007KT CAVOK 19/12 Q1016
03:00
V
21 °C 10 km+ - 030° 030° 3 kt METAR SBCG 200700Z 03003KT CAVOK 21/11 Q1016
02:00
V
20 °C 10 km+ - 050° 050° 6 kt METAR SBCG 200600Z 05006KT CAVOK 20/12 Q1016
Signaler les modifications